Aviation Digital Data Service (ADDS)

Output produced by METARs form (2052 UTC 18 April 2021)
found at http://www.aviationweather.gov/metar/data/
 
METAR text: ZJSY 182000Z 09004MPS 9999 BKN050 26/23 Q1009 NOSIG
Conditions at: ZJSY (SANYA/FENGHUANG , CN) observed 2000 UTC 18 April 2021
Temperature: 26.0°C (79°F)
Dewpoint: 23.0°C (73°F) [RH = 84%]
Pressure (altimeter): 29.79 inches Hg (1009.0 mb)
Winds: from the E (90 degrees) at 9 MPH (8 knots; 4.1 m/s)
Visibility: 6 or more miles (10+ km)
Ceiling: 5000 feet AGL
Clouds: broken clouds at 5000 feet AGL
Weather: no significant weather observed at this time

METAR text: ZJSY 181900Z 10003MPS 9999 BKN040 26/23 Q1010 NOSIG
Conditions at: ZJSY (SANYA/FENGHUANG , CN) observed 1900 UTC 18 April 2021
Temperature: 26.0°C (79°F)
Dewpoint: 23.0°C (73°F) [RH = 84%]
Pressure (altimeter): 29.82 inches Hg (1010.0 mb)
Winds: from the E (100 degrees) at 7 MPH (6 knots; 3.1 m/s)
Visibility: 6 or more miles (10+ km)
Ceiling: 4000 feet AGL
Clouds: broken clouds at 4000 feet AGL
Weather: no significant weather observed at this time

METAR text: ZJSY 181800Z 09003MPS 9999 SCT040 26/23 Q1011 NOSIG
Conditions at: ZJSY (SANYA/FENGHUANG , CN) observed 1800 UTC 18 April 2021
Temperature: 26.0°C (79°F)
Dewpoint: 23.0°C (73°F) [RH = 84%]
Pressure (altimeter): 29.85 inches Hg (1011.0 mb)
Winds: from the E (90 degrees) at 7 MPH (6 knots; 3.1 m/s)
Visibility: 6 or more miles (10+ km)
Ceiling: at least 12,000 feet AGL
Clouds: scattered clouds at 4000 feet AGL
Weather: no significant weather observed at this time

METAR text: ZJSY 181700Z 09002MPS 060V120 9999 SCT050 26/23 Q1012 NOSIG
Conditions at: ZJSY (SANYA/FENGHUANG , CN) observed 1700 UTC 18 April 2021
Temperature: 26.0°C (79°F)
Dewpoint: 23.0°C (73°F) [RH = 84%]
Pressure (altimeter): 29.88 inches Hg (1012.0 mb)
Winds: from the E (90 degrees) at 5 MPH (4 knots; 2.1 m/s)
Visibility: 6 or more miles (10+ km)
Ceiling: at least 12,000 feet AGL
Clouds: scattered clouds at 5000 feet AGL
Weather: no significant weather observed at this time

METAR text: ZJSY 181600Z 09003MPS 9999 SCT033 26/23 Q1012 NOSIG
Conditions at: ZJSY (SANYA/FENGHUANG , CN) observed 1600 UTC 18 April 2021
Temperature: 26.0°C (79°F)
Dewpoint: 23.0°C (73°F) [RH = 84%]
Pressure (altimeter): 29.88 inches Hg (1012.0 mb)
Winds: from the E (90 degrees) at 7 MPH (6 knots; 3.1 m/s)
Visibility: 6 or more miles (10+ km)
Ceiling: at least 12,000 feet AGL
Clouds: scattered clouds at 3300 feet AGL
Weather: no significant weather observed at this time

METAR text: ZJSY 181500Z 09004MPS 9999 SCT033 26/23 Q1012 NOSIG
Conditions at: ZJSY (SANYA/FENGHUANG , CN) observed 1500 UTC 18 April 2021
Temperature: 26.0°C (79°F)
Dewpoint: 23.0°C (73°F) [RH = 84%]
Pressure (altimeter): 29.88 inches Hg (1012.0 mb)
Winds: from the E (90 degrees) at 9 MPH (8 knots; 4.1 m/s)
Visibility: 6 or more miles (10+ km)
Ceiling: at least 12,000 feet AGL
Clouds: scattered clouds at 3300 feet AGL
Weather: no significant weather observed at this time

METAR text: ZJSY 181400Z 08003MPS 9999 FEW066 26/22 Q1012 NOSIG
Conditions at: ZJSY (SANYA/FENGHUANG , CN) observed 1400 UTC 18 April 2021
Temperature: 26.0°C (79°F)
Dewpoint: 22.0°C (72°F) [RH = 79%]
Pressure (altimeter): 29.88 inches Hg (1012.0 mb)
Winds: from the E (80 degrees) at 7 MPH (6 knots; 3.1 m/s)
Visibility: 6 or more miles (10+ km)
Ceiling: at least 12,000 feet AGL
Clouds: few clouds at 6600 feet AGL
Weather: no significant weather observed at this time

METAR text: ZJSY 181300Z 08004MPS 9999 SCT020 27/22 Q1011 NOSIG
Conditions at: ZJSY (SANYA/FENGHUANG , CN) observed 1300 UTC 18 April 2021
Temperature: 27.0°C (81°F)
Dewpoint: 22.0°C (72°F) [RH = 74%]
Pressure (altimeter): 29.85 inches Hg (1011.0 mb)
Winds: from the E (80 degrees) at 9 MPH (8 knots; 4.1 m/s)
Visibility: 6 or more miles (10+ km)
Ceiling: at least 12,000 feet AGL
Clouds: scattered clouds at 2000 feet AGL
Weather: no significant weather observed at this time

METAR text: ZJSY 181200Z 07004MPS 9999 FEW015 27/23 Q1011 NOSIG
Conditions at: ZJSY (SANYA/FENGHUANG , CN) observed 1200 UTC 18 April 2021
Temperature: 27.0°C (81°F)
Dewpoint: 23.0°C (73°F) [RH = 79%]
Pressure (altimeter): 29.85 inches Hg (1011.0 mb)
Winds: from the ENE (70 degrees) at 9 MPH (8 knots; 4.1 m/s)
Visibility: 6 or more miles (10+ km)
Ceiling: at least 12,000 feet AGL
Clouds: few clouds at 1500 feet AGL
Weather: no significant weather observed at this time

METAR text: ZJSY 181100Z 08005MPS 9999 FEW050 27/22 Q1010 NOSIG
Conditions at: ZJSY (SANYA/FENGHUANG , CN) observed 1100 UTC 18 April 2021
Temperature: 27.0°C (81°F)
Dewpoint: 22.0°C (72°F) [RH = 74%]
Pressure (altimeter): 29.82 inches Hg (1010.0 mb)
Winds: from the E (80 degrees) at 12 MPH (10 knots; 5.1 m/s)
Visibility: 6 or more miles (10+ km)
Ceiling: at least 12,000 feet AGL
Clouds: few clouds at 5000 feet AGL
Weather: no significant weather observed at this time

METAR text: ZJSY 181000Z 10004MPS 9999 FEW015 BKN050 28/22 Q1010 NOSIG
Conditions at: ZJSY (SANYA/FENGHUANG , CN) observed 1000 UTC 18 April 2021
Temperature: 28.0°C (82°F)
Dewpoint: 22.0°C (72°F) [RH = 70%]
Pressure (altimeter): 29.82 inches Hg (1010.0 mb)
Winds: from the E (100 degrees) at 9 MPH (8 knots; 4.1 m/s)
Visibility: 6 or more miles (10+ km)
Ceiling: 5000 feet AGL
Clouds: few clouds at 1500 feet AGL
broken clouds at 5000 feet AGL
Weather: no significant weather observed at this time

METAR text: ZJSY 180900Z 09006MPS 9999 SCT015 BKN050 28/22 Q1009 NOSIG
Conditions at: ZJSY (SANYA/FENGHUANG , CN) observed 0900 UTC 18 April 2021
Temperature: 28.0°C (82°F)
Dewpoint: 22.0°C (72°F) [RH = 70%]
Pressure (altimeter): 29.79 inches Hg (1009.0 mb)
Winds: from the E (90 degrees) at 14 MPH (12 knots; 6.2 m/s)
Visibility: 6 or more miles (10+ km)
Ceiling: 5000 feet AGL
Clouds: scattered clouds at 1500 feet AGL
broken clouds at 5000 feet AGL
Weather: no significant weather observed at this time

METAR text: ZJSY 180800Z 16003MPS 120V190 9999 SCT015 BKN050 28/23 Q1009 NOSIG
Conditions at: ZJSY (SANYA/FENGHUANG , CN) observed 0800 UTC 18 April 2021
Temperature: 28.0°C (82°F)
Dewpoint: 23.0°C (73°F) [RH = 74%]
Pressure (altimeter): 29.79 inches Hg (1009.0 mb)
Winds: from the SSE (160 degrees) at 7 MPH (6 knots; 3.1 m/s)
Visibility: 6 or more miles (10+ km)
Ceiling: 5000 feet AGL
Clouds: scattered clouds at 1500 feet AGL
broken clouds at 5000 feet AGL
Weather: no significant weather observed at this time

METAR text: ZJSY 180700Z 15004MPS 080V190 9999 FEW015 SCT020 30/23 Q1010 NOSIG
Conditions at: ZJSY (SANYA/FENGHUANG , CN) observed 0700 UTC 18 April 2021
Temperature: 30.0°C (86°F)
Dewpoint: 23.0°C (73°F) [RH = 66%]
Pressure (altimeter): 29.82 inches Hg (1010.0 mb)
Winds: from the SSE (150 degrees) at 9 MPH (8 knots; 4.1 m/s)
Visibility: 6 or more miles (10+ km)
Ceiling: at least 12,000 feet AGL
Clouds: few clouds at 1500 feet AGL
scattered clouds at 2000 feet AGL
Weather: no significant weather observed at this time

METAR text: ZJSY 180600Z 11004MPS 080V160 9999 FEW020 SCT033 31/22 Q1011 NOSIG
Conditions at: ZJSY (SANYA/FENGHUANG , CN) observed 0600 UTC 18 April 2021
Temperature: 31.0°C (88°F)
Dewpoint: 22.0°C (72°F) [RH = 59%]
Pressure (altimeter): 29.85 inches Hg (1011.0 mb)
Winds: from the ESE (110 degrees) at 9 MPH (8 knots; 4.1 m/s)
Visibility: 6 or more miles (10+ km)
Ceiling: at least 12,000 feet AGL
Clouds: few clouds at 2000 feet AGL
scattered clouds at 3300 feet AGL
Weather: no significant weather observed at this time

METAR text: ZJSY 180500Z 10005MPS 9999 FEW020 SCT033 30/23 Q1012 NOSIG
Conditions at: ZJSY (SANYA/FENGHUANG , CN) observed 0500 UTC 18 April 2021
Temperature: 30.0°C (86°F)
Dewpoint: 23.0°C (73°F) [RH = 66%]
Pressure (altimeter): 29.88 inches Hg (1012.0 mb)
Winds: from the E (100 degrees) at 12 MPH (10 knots; 5.1 m/s)
Visibility: 6 or more miles (10+ km)
Ceiling: at least 12,000 feet AGL
Clouds: few clouds at 2000 feet AGL
scattered clouds at 3300 feet AGL
Weather: no significant weather observed at this time

METAR text: ZJSY 180400Z 14004MPS 100V190 9999 FEW020 SCT033 30/23 Q1013 NOSIG
Conditions at: ZJSY (SANYA/FENGHUANG , CN) observed 0400 UTC 18 April 2021
Temperature: 30.0°C (86°F)
Dewpoint: 23.0°C (73°F) [RH = 66%]
Pressure (altimeter): 29.91 inches Hg (1013.0 mb)
Winds: from the SE (140 degrees) at 9 MPH (8 knots; 4.1 m/s)
Visibility: 6 or more miles (10+ km)
Ceiling: at least 12,000 feet AGL
Clouds: few clouds at 2000 feet AGL
scattered clouds at 3300 feet AGL
Weather: no significant weather observed at this time

METAR text: ZJSY 180300Z 15004MPS 120V190 9999 BKN023 30/23 Q1013 NOSIG
Conditions at: ZJSY (SANYA/FENGHUANG , CN) observed 0300 UTC 18 April 2021
Temperature: 30.0°C (86°F)
Dewpoint: 23.0°C (73°F) [RH = 66%]
Pressure (altimeter): 29.91 inches Hg (1013.0 mb)
Winds: from the SSE (150 degrees) at 9 MPH (8 knots; 4.1 m/s)
Visibility: 6 or more miles (10+ km)
Ceiling: 2300 feet AGL
Clouds: broken clouds at 2300 feet AGL
Weather: no significant weather observed at this time

METAR text: ZJSY 180200Z 15003MPS 110V190 9999 SCT023 28/23 Q1013 NOSIG
Conditions at: ZJSY (SANYA/FENGHUANG , CN) observed 0200 UTC 18 April 2021
Temperature: 28.0°C (82°F)
Dewpoint: 23.0°C (73°F) [RH = 74%]
Pressure (altimeter): 29.91 inches Hg (1013.0 mb)
Winds: from the SSE (150 degrees) at 7 MPH (6 knots; 3.1 m/s)
Visibility: 6 or more miles (10+ km)
Ceiling: at least 12,000 feet AGL
Clouds: scattered clouds at 2300 feet AGL
Weather: no significant weather observed at this time

METAR text: ZJSY 180100Z 11004MPS 070V140 9999 SCT023 29/22 Q1013 NOSIG
Conditions at: ZJSY (SANYA/FENGHUANG , CN) observed 0100 UTC 18 April 2021
Temperature: 29.0°C (84°F)
Dewpoint: 22.0°C (72°F) [RH = 66%]
Pressure (altimeter): 29.91 inches Hg (1013.0 mb)
Winds: from the ESE (110 degrees) at 9 MPH (8 knots; 4.1 m/s)
Visibility: 6 or more miles (10+ km)
Ceiling: at least 12,000 feet AGL
Clouds: scattered clouds at 2300 feet AGL
Weather: no significant weather observed at this time

METAR text: ZJSY 180000Z 10003MPS 9999 FEW020 28/22 Q1013 NOSIG
Conditions at: ZJSY (SANYA/FENGHUANG , CN) observed 0000 UTC 18 April 2021
Temperature: 28.0°C (82°F)
Dewpoint: 22.0°C (72°F) [RH = 70%]
Pressure (altimeter): 29.91 inches Hg (1013.0 mb)
Winds: from the E (100 degrees) at 7 MPH (6 knots; 3.1 m/s)
Visibility: 6 or more miles (10+ km)
Ceiling: at least 12,000 feet AGL
Clouds: few clouds at 2000 feet AGL
Weather: no significant weather observed at this time

METAR text: ZJSY 172300Z 10002MPS 9999 FEW040 25/22 Q1013 NOSIG
Conditions at: ZJSY (SANYA/FENGHUANG , CN) observed 2300 UTC 17 April 2021
Temperature: 25.0°C (77°F)
Dewpoint: 22.0°C (72°F) [RH = 83%]
Pressure (altimeter): 29.91 inches Hg (1013.0 mb)
Winds: from the E (100 degrees) at 5 MPH (4 knots; 2.1 m/s)
Visibility: 6 or more miles (10+ km)
Ceiling: at least 12,000 feet AGL
Clouds: few clouds at 4000 feet AGL
Weather: no significant weather observed at this time

METAR text: ZJSY 172200Z 05003MPS 9999 FEW040 26/22 Q1012 NOSIG
Conditions at: ZJSY (SANYA/FENGHUANG , CN) observed 2200 UTC 17 April 2021
Temperature: 26.0°C (79°F)
Dewpoint: 22.0°C (72°F) [RH = 79%]
Pressure (altimeter): 29.88 inches Hg (1012.0 mb)
Winds: from the NE (50 degrees) at 7 MPH (6 knots; 3.1 m/s)
Visibility: 6 or more miles (10+ km)
Ceiling: at least 12,000 feet AGL
Clouds: few clouds at 4000 feet AGL
Weather: no significant weather observed at this time

METAR text: ZJSY 172100Z 07003MPS 9999 BKN040 26/23 Q1012 NOSIG
Conditions at: ZJSY (SANYA/FENGHUANG , CN) observed 2100 UTC 17 April 2021
Temperature: 26.0°C (79°F)
Dewpoint: 23.0°C (73°F) [RH = 84%]
Pressure (altimeter): 29.88 inches Hg (1012.0 mb)
Winds: from the ENE (70 degrees) at 7 MPH (6 knots; 3.1 m/s)
Visibility: 6 or more miles (10+ km)
Ceiling: 4000 feet AGL
Clouds: broken clouds at 4000 feet AGL
Weather: no significant weather observed at this time

METAR text: ZJSY 172000Z 09004MPS 9999 BKN030 26/23 Q1012 NOSIG
Conditions at: ZJSY (SANYA/FENGHUANG , CN) observed 2000 UTC 17 April 2021
Temperature: 26.0°C (79°F)
Dewpoint: 23.0°C (73°F) [RH = 84%]
Pressure (altimeter): 29.88 inches Hg (1012.0 mb)
Winds: from the E (90 degrees) at 9 MPH (8 knots; 4.1 m/s)
Visibility: 6 or more miles (10+ km)
Ceiling: 3000 feet AGL
Clouds: broken clouds at 3000 feet AGL
Weather: no significant weather observed at this time

METAR text: ZJSY 171900Z 07002MPS 9999 BKN050 26/22 Q1013 NOSIG
Conditions at: ZJSY (SANYA/FENGHUANG , CN) observed 1900 UTC 17 April 2021
Temperature: 26.0°C (79°F)
Dewpoint: 22.0°C (72°F) [RH = 79%]
Pressure (altimeter): 29.91 inches Hg (1013.0 mb)
Winds: from the ENE (70 degrees) at 5 MPH (4 knots; 2.1 m/s)
Visibility: 6 or more miles (10+ km)
Ceiling: 5000 feet AGL
Clouds: broken clouds at 5000 feet AGL
Weather: no significant weather observed at this time

METAR text: ZJSY 171800Z 09002MPS 9999 BKN040 26/23 Q1013 NOSIG
Conditions at: ZJSY (SANYA/FENGHUANG , CN) observed 1800 UTC 17 April 2021
Temperature: 26.0°C (79°F)
Dewpoint: 23.0°C (73°F) [RH = 84%]
Pressure (altimeter): 29.91 inches Hg (1013.0 mb)
Winds: from the E (90 degrees) at 5 MPH (4 knots; 2.1 m/s)
Visibility: 6 or more miles (10+ km)
Ceiling: 4000 feet AGL
Clouds: broken clouds at 4000 feet AGL
Weather: no significant weather observed at this time

METAR text: ZJSY 171700Z 10002MPS 060V120 9999 FEW023 SCT050 26/23 Q1014 NOSIG
Conditions at: ZJSY (SANYA/FENGHUANG , CN) observed 1700 UTC 17 April 2021
Temperature: 26.0°C (79°F)
Dewpoint: 23.0°C (73°F) [RH = 84%]
Pressure (altimeter): 29.94 inches Hg (1014.0 mb)
Winds: from the E (100 degrees) at 5 MPH (4 knots; 2.1 m/s)
Visibility: 6 or more miles (10+ km)
Ceiling: at least 12,000 feet AGL
Clouds: few clouds at 2300 feet AGL
scattered clouds at 5000 feet AGL
Weather: no significant weather observed at this time

METAR text: ZJSY 171600Z 08003MPS 9999 SCT050 26/23 Q1014 NOSIG
Conditions at: ZJSY (SANYA/FENGHUANG , CN) observed 1600 UTC 17 April 2021
Temperature: 26.0°C (79°F)
Dewpoint: 23.0°C (73°F) [RH = 84%]
Pressure (altimeter): 29.94 inches Hg (1014.0 mb)
Winds: from the E (80 degrees) at 7 MPH (6 knots; 3.1 m/s)
Visibility: 6 or more miles (10+ km)
Ceiling: at least 12,000 feet AGL
Clouds: scattered clouds at 5000 feet AGL
Weather: no significant weather observed at this time

METAR text: ZJSY 171500Z 09003MPS 9999 BKN050 26/23 Q1014 NOSIG
Conditions at: ZJSY (SANYA/FENGHUANG , CN) observed 1500 UTC 17 April 2021
Temperature: 26.0°C (79°F)
Dewpoint: 23.0°C (73°F) [RH = 84%]
Pressure (altimeter): 29.94 inches Hg (1014.0 mb)
Winds: from the E (90 degrees) at 7 MPH (6 knots; 3.1 m/s)
Visibility: 6 or more miles (10+ km)
Ceiling: 5000 feet AGL
Clouds: broken clouds at 5000 feet AGL
Weather: no significant weather observed at this time

METAR text: ZJSY 171400Z 36002MPS 310V070 9999 FEW050 26/24 Q1014 NOSIG
Conditions at: ZJSY (SANYA/FENGHUANG , CN) observed 1400 UTC 17 April 2021
Temperature: 26.0°C (79°F)
Dewpoint: 24.0°C (75°F) [RH = 89%]
Pressure (altimeter): 29.94 inches Hg (1014.0 mb)
Winds: from the N (360 degrees) at 5 MPH (4 knots; 2.1 m/s)
Visibility: 6 or more miles (10+ km)
Ceiling: at least 12,000 feet AGL
Clouds: few clouds at 5000 feet AGL
Weather: no significant weather observed at this time

METAR text: ZJSY 171300Z VRB01MPS 9999 SCT050 26/24 Q1014 NOSIG
Conditions at: ZJSY (SANYA/FENGHUANG , CN) observed 1300 UTC 17 April 2021
Temperature: 26.0°C (79°F)
Dewpoint: 24.0°C (75°F) [RH = 89%]
Pressure (altimeter): 29.94 inches Hg (1014.0 mb)
Winds: variable direction winds at 2 MPH (2 knots; 1.0 m/s)
Visibility: 6 or more miles (10+ km)
Ceiling: at least 12,000 feet AGL
Clouds: scattered clouds at 5000 feet AGL
Weather: no significant weather observed at this time

METAR text: ZJSY 171200Z 31003MPS 280V010 9999 SCT019 FEW025TCU BKN026 26/24 Q1013 NOSIG
Conditions at: ZJSY (SANYA/FENGHUANG , CN) observed 1200 UTC 17 April 2021
Temperature: 26.0°C (79°F)
Dewpoint: 24.0°C (75°F) [RH = 89%]
Pressure (altimeter): 29.91 inches Hg (1013.0 mb)
Winds: from the NW (310 degrees) at 7 MPH (6 knots; 3.1 m/s)
Visibility: 6 or more miles (10+ km)
Ceiling: 2600 feet AGL
Clouds: scattered clouds at 1900 feet AGL
few clouds at 2500 feet AGL
broken clouds at 2600 feet AGL
Weather: no significant weather observed at this time

METAR text: ZJSY 171100Z 17002MPS 110V250 9999 FEW015 SCT019 BKN030 27/24 Q1012 NOSIG
Conditions at: ZJSY (SANYA/FENGHUANG , CN) observed 1100 UTC 17 April 2021
Temperature: 27.0°C (81°F)
Dewpoint: 24.0°C (75°F) [RH = 84%]
Pressure (altimeter): 29.88 inches Hg (1012.0 mb)
Winds: from the S (170 degrees) at 5 MPH (4 knots; 2.1 m/s)
Visibility: 6 or more miles (10+ km)
Ceiling: 3000 feet AGL
Clouds: few clouds at 1500 feet AGL
scattered clouds at 1900 feet AGL
broken clouds at 3000 feet AGL
Weather: no significant weather observed at this time

METAR text: ZJSY 171000Z 20003MPS 170V240 9999 FEW015 SCT019 BKN030 28/24 Q1012 NOSIG
Conditions at: ZJSY (SANYA/FENGHUANG , CN) observed 1000 UTC 17 April 2021
Temperature: 28.0°C (82°F)
Dewpoint: 24.0°C (75°F) [RH = 79%]
Pressure (altimeter): 29.88 inches Hg (1012.0 mb)
Winds: from the SSW (200 degrees) at 7 MPH (6 knots; 3.1 m/s)
Visibility: 6 or more miles (10+ km)
Ceiling: 3000 feet AGL
Clouds: few clouds at 1500 feet AGL
scattered clouds at 1900 feet AGL
broken clouds at 3000 feet AGL
Weather: no significant weather observed at this time

METAR text: ZJSY 170900Z 21003MPS 170V240 9999 FEW020 BKN030 28/24 Q1011 NOSIG
Conditions at: ZJSY (SANYA/FENGHUANG , CN) observed 0900 UTC 17 April 2021
Temperature: 28.0°C (82°F)
Dewpoint: 24.0°C (75°F) [RH = 79%]
Pressure (altimeter): 29.85 inches Hg (1011.0 mb)
Winds: from the SSW (210 degrees) at 7 MPH (6 knots; 3.1 m/s)
Visibility: 6 or more miles (10+ km)
Ceiling: 3000 feet AGL
Clouds: few clouds at 2000 feet AGL
broken clouds at 3000 feet AGL
Weather: no significant weather observed at this time

Forecast for: ZJSY (SANYA/FENGHUANG , CN)
Text: TAF ZJSY 181501Z 1818/1918 09004MPS 9999 SCT020 TX31/1906Z TN24/1821Z
Forecast period: 1800 UTC 18 April 2021 to 1800 UTC 19 April 2021
Forecast type: FROM: standard forecast or significant change
Winds: from the E (90 degrees) at 9 MPH (8 knots; 4.1 m/s)
Visibility: 6 or more miles (10+ km)
Ceiling: at least 12,000 feet AGL
Clouds: scattered clouds at 2000 feet AGL
Weather: no significant weather forecast for this period